Time Latitude Longitude Accuracy (66% radius in meters) Altitude (meters) Speed (km/hour) Bearing (degrees) Battery (%) GPS flag
10:02:08 60.370988 29.556356 12 78 0 6.0770397186279 68 1 delete
10:01:56 60.370985 29.556362 8 78 0 31.022531509399 68 1 delete
10:01:43 60.370974 29.556367 8 77 0 51.208103179932 68 1 delete
10:01:31 60.370984 29.556364 8 81 0.32545772194862 104.43954467773 68 1 delete
10:01:18 60.370985 29.556358 8 81 0 194.66427612305 68 1 delete
10:01:06 60.370972 29.556405 12 80 0 194.66427612305 68 1 delete
10:00:59 60.370974 29.556433 6 83 0 32.400276184082 68 1 delete
10:00:53 60.370949 29.556409 12 81 0 32.400276184082 68 1 delete
10:00:41 60.370934 29.556356 24 72 0 32.400276184082 68 1 delete
10:00:28 60.370923 29.556367 8 69 0 28.493444442749 68 1 delete
10:00:15 60.370929 29.556339 8 77 0 194.85638427734 68 1 delete
10:00:02 60.370934 29.556378 12 69 0 332.45425415039 68 1 delete
09:59:50 60.370946 29.556322 6 65 0 126.20976257324 68 1 delete
09:59:37 60.370940 29.556344 6 66 0 126.20976257324 68 1 delete
09:59:31 60.370938 29.556377 6 68 0 126.20976257324 68 1 delete
09:59:25 60.370946 29.556431 6 71 0 126.20976257324 68 1 delete
09:59:19 60.370974 29.556437 8 74 0 126.20976257324 68 1 delete
09:59:12 60.370987 29.556380 6 72 0 126.20976257324 68 1 delete
09:59:00 60.370977 29.556383 6 76 0 126.20976257324 68 1 delete
09:58:47 60.370964 29.556357 8 75 0 126.20976257324 68 1 delete
09:58:35 60.370975 29.556340 6 76 0 126.20976257324 68 1 delete
09:58:34 60.370977 29.556344 12 76 0 126.20976257324 68 1 delete
09:58:21 60.371006 29.556400 6 78 0 103.19435882568 68 1 delete
09:58:09 60.371000 29.556458 6 81 0 103.19435882568 73 1 delete
09:57:55 60.371014 29.556443 6 81 0 103.19435882568 73 1 delete
09:57:46 60.370994 29.556426 8 81 0 103.19435882568 73 1 delete
09:57:40 60.370979 29.556404 6 77 0 103.19435882568 73 1 delete
09:57:28 60.370959 29.556414 6 76 0 103.19435882568 73 1 delete
09:57:15 60.370944 29.556398 6 74 0 41.003810882568 73 1 delete
09:57:02 60.370935 29.556401 6 71 0 41.003810882568 73 1 delete
09:56:49 60.370946 29.556386 8 69 0 173.82344055176 73 1 delete
09:56:42 60.370954 29.556381 12 71 0.28240349888802 173.82344055176 73 1 delete
09:56:36 60.370963 29.556380 6 73 0 27.561279296875 73 1 delete
09:56:23 60.370966 29.556399 6 76 0 27.561279296875 73 1 delete
09:56:10 60.370961 29.556454 6 77 0 27.561279296875 73 1 delete
09:55:57 60.370981 29.556430 8 78 0 27.561279296875 73 1 delete
09:55:45 60.370995 29.556406 4 86 0 27.561279296875 73 1 delete
09:55:36 60.370981 29.556454 8 83 0 27.561279296875 73 1 delete
09:55:32 60.370984 29.556463 8 85 0 27.561279296875 73 1 delete
09:55:20 60.370984 29.556459 6 83 0 27.561279296875 73 1 delete
09:55:07 60.370984 29.556459 12 80 0 27.561279296875 73 1 delete
09:54:54 60.370998 29.556525 4 84 0 27.561279296875 73 1 delete
09:54:43 60.370995 29.556542 6 88 0 27.561279296875 73 1 delete
09:54:41 60.370991 29.556510 6 85 0 27.561279296875 73 1 delete
09:54:35 60.370984 29.556452 8 82 0 27.561279296875 73 1 delete
09:54:29 60.370971 29.556392 6 79 0 27.561279296875 73 1 delete
09:54:16 60.370964 29.556339 8 73 0 27.561279296875 73 1 delete
09:54:03 60.370974 29.556336 16 72 0 27.561279296875 73 1 delete
09:53:50 60.370979 29.556360 8 65 0 27.561279296875 73 1 delete
09:53:38 60.370966 29.556385 6 74 0 288.02239990234 73 1 delete